Darstellungsparameter: Aktuell verwendete Einstellungen:
Skalierung der Graphiken ... ?
xyx+y,   Skalierungsfaktor:      Skalierung: Modus: x, Faktor: 1
Darstellungszeitraum ... ?
Vom - - bis: - -   Zeitraum: 02.11.2008 - 03.11.2008
Min/Max/Avg-Anzeige ... ?
Zeige MMA aktuell
Zeige MMA Monat
Zeige MMA alles
Zeige --A aktuell
Zeige --A Monat
Zeige --A alles
Keine MMA-Anzeige
MMA:
Average (ber die Originaldaten)
MMA-Basis: 17.04.2019 - 19.05.2019
Quicknavigation für Darstellung... ?
Tage:      1T, 2T, 3T, 5T -1T -2T -3T -5T +1T +2T +3T +5T
Wochen: 1W, 2W, 3W -1W -2W -3W +1W +2W +3W
Monate: 1M, 3M, 6M -1M -3M -6M +1M +3M +6M
Jahre:    1J, 3J, 5J, 10J -1J -3J -5J -10J +1J +3J +5J +10J
Nutze für die Darstellung ... ?
Originaldaten oder Mittelwerte auf ...
Stundenbasis Tagesbasis Wochenbasis
Monatsbasis Jahresbasis      Datenbasis: Original-Daten
Darstellen als:
Statistik (Auto) Statistik J:M      Darstellung:
Zur Graphik,    zurück zur Übersicht aller Sensoren.
 
Tabellarische Datenbersicht: ?
 
Sensor: Nr:Datum:Temp:Abs-Feuchte:Windchill:Wind:
Aussen-T/F 1 02-11-2008 00:21:22 8.5 C 7.77 g/m*3 8.5 C 0 km/h
2 02-11-2008 00:46:22 8.5 C 7.85 g/m*3 8.5 C 0 km/h
3 02-11-2008 01:11:22 9.6 C 7.79 g/m*3 9.6 C 0 km/h
4 02-11-2008 01:36:22 9.8 C 7.42 g/m*3 9.8 C 0 km/h
5 02-11-2008 02:01:22 9.3 C 7.46 g/m*3 9.3 C 0 km/h
6 02-11-2008 02:26:22 9.4 C 7.51 g/m*3 9.4 C 0 km/h
7 02-11-2008 02:51:22 9 C 7.41 g/m*3 9 C 0 km/h
8 02-11-2008 03:16:22 8.9 C 7.53 g/m*3 8.9 C 0 km/h
9 02-11-2008 03:41:22 8.5 C 7.43 g/m*3 8.5 C 0 km/h
10 02-11-2008 04:06:22 8.3 C 7.5 g/m*3 8.3 C 0 km/h
11 02-11-2008 04:31:22 8.1 C 7.49 g/m*3 8.1 C 0 km/h
12 02-11-2008 04:56:22 7.9 C 7.47 g/m*3 7.9 C 0 km/h
13 02-11-2008 05:21:23 7.6 C 7.41 g/m*3 7.6 C 0 km/h
14 02-11-2008 05:46:23 7.6 C 7.41 g/m*3 7.6 C 0 km/h
15 02-11-2008 06:11:23 7.4 C 7.4 g/m*3 7.4 C 0 km/h
16 02-11-2008 06:36:23 7.5 C 7.52 g/m*3 7.5 C 0 km/h
17 02-11-2008 07:01:23 7.4 C 7.48 g/m*3 7.4 C 0 km/h
18 02-11-2008 07:26:23 7.3 C 7.43 g/m*3 7.3 C 0 km/h
19 02-11-2008 07:51:23 7.1 C 7.33 g/m*3 7.1 C 0 km/h
20 02-11-2008 08:16:23 7.3 C 7.43 g/m*3 7.3 C 0 km/h
21 02-11-2008 08:41:23 7.6 C 7.65 g/m*3 7.6 C 0 km/h
22 02-11-2008 09:06:23 7.6 C 7.65 g/m*3 7.6 C 0 km/h
23 02-11-2008 09:31:23 8.1 C 7.82 g/m*3 8.1 C 0 km/h
24 02-11-2008 09:56:23 8.7 C 8.13 g/m*3 8.7 C 0 km/h
25 02-11-2008 10:21:23 9.5 C 8.47 g/m*3 9.5 C 0 km/h
Sensor: Nr:Datum:Temp:Abs-Feuchte:Windchill:Wind:
Aussen-T/F 26 02-11-2008 10:46:23 10.1 C 8.42 g/m*3 10.1 C 0 km/h
27 02-11-2008 11:11:23 10.8 C 8.2 g/m*3 10.8 C 0 km/h
28 02-11-2008 11:36:23 11.5 C 8.06 g/m*3 11.5 C 0 km/h
29 02-11-2008 12:01:23 12.5 C 8.25 g/m*3 12.5 C 0 km/h
30 02-11-2008 12:26:23 13.4 C 8.02 g/m*3 13.4 C 0 km/h
31 02-11-2008 12:51:23 13.5 C 7.84 g/m*3 13.5 C 0 km/h
32 02-11-2008 13:16:23 13.8 C 7.74 g/m*3 13.8 C 0 km/h
33 02-11-2008 13:41:24 14.1 C 7.89 g/m*3 14.1 C 0 km/h
34 02-11-2008 14:06:24 15.4 C 7.88 g/m*3 15.4 C 0 km/h
35 02-11-2008 14:31:24 14.8 C 7.73 g/m*3 14.8 C 0 km/h
36 02-11-2008 14:56:24 14.4 C 7.91 g/m*3 14.4 C 0 km/h
37 02-11-2008 15:21:24 14.4 C 7.91 g/m*3 14.4 C 0 km/h
38 02-11-2008 15:46:24 13.8 C 8.1 g/m*3 13.8 C 0 km/h
39 02-11-2008 16:11:24 13.5 C 8.19 g/m*3 13.5 C 0 km/h
40 02-11-2008 16:36:24 12.6 C 8.19 g/m*3 12.6 C 0 km/h
41 02-11-2008 17:01:24 11.8 C 8.1 g/m*3 11.8 C 0 km/h
42 02-11-2008 17:26:24 11.2 C 8.01 g/m*3 11.2 C 0 km/h
43 02-11-2008 17:51:24 10.6 C 8 g/m*3 10.6 C 0 km/h
44 02-11-2008 18:16:24 10.7 C 8.15 g/m*3 10.7 C 0 km/h
45 02-11-2008 18:41:24 10.1 C 7.85 g/m*3 10.1 C 0 km/h
46 02-11-2008 19:06:24 9.9 C 7.94 g/m*3 9.9 C 0 km/h
47 02-11-2008 19:31:24 9.8 C 7.89 g/m*3 9.8 C 0 km/h
48 02-11-2008 19:56:24 9.6 C 7.88 g/m*3 9.6 C 0 km/h
49 02-11-2008 20:21:24 9.4 C 7.87 g/m*3 9.4 C 0 km/h
50 02-11-2008 20:46:24 9.2 C 7.86 g/m*3 9.2 C 0 km/h
Sensor: Nr:Datum:Temp:Abs-Feuchte:Windchill:Wind:
Aussen-T/F 51 02-11-2008 21:11:24 9.1 C 7.81 g/m*3 9.1 C 0 km/h
52 02-11-2008 21:36:24 9.1 C 7.9 g/m*3 9.1 C 0 km/h
53 02-11-2008 22:01:24 9.2 C 7.95 g/m*3 9.2 C 0 km/h
54 02-11-2008 22:26:25 9 C 7.85 g/m*3 9 C 0 km/h
55 02-11-2008 22:51:25 8.7 C 7.7 g/m*3 8.7 C 0 km/h
56 02-11-2008 23:16:25 8.6 C 7.73 g/m*3 8.6 C 0 km/h
57 02-11-2008 23:41:25 8.2 C 7.62 g/m*3 8.2 C 0 km/h
58 03-11-2008 00:06:25 8.1 C 7.57 g/m*3 8.1 C 0 km/h
59 03-11-2008 00:31:25 8 C 7.52 g/m*3 8 C 0 km/h
60 03-11-2008 00:56:25 7.7 C 7.46 g/m*3 7.7 C 0 km/h
61 03-11-2008 01:21:25 7.8 C 7.59 g/m*3 7.8 C 0 km/h
62 03-11-2008 01:46:25 8 C 7.69 g/m*3 8 C 0 km/h
63 03-11-2008 02:11:25 8 C 7.69 g/m*3 8 C 0 km/h
64 03-11-2008 02:36:25 8 C 7.69 g/m*3 8 C 0 km/h
65 03-11-2008 03:01:25 8.5 C 8.03 g/m*3 8.5 C 0 km/h
66 03-11-2008 03:26:25 8.9 C 8.23 g/m*3 8.9 C 0 km/h
67 03-11-2008 03:51:25 9 C 8.11 g/m*3 9 C 0 km/h
68 03-11-2008 04:16:25 9.1 C 8.07 g/m*3 9.1 C 0 km/h
69 03-11-2008 04:41:25 9.1 C 7.99 g/m*3 9.1 C 0 km/h
70 03-11-2008 05:06:25 9.2 C 7.95 g/m*3 9.2 C 0 km/h
71 03-11-2008 05:31:25 9.2 C 7.86 g/m*3 9.2 C 0 km/h
72 03-11-2008 05:56:25 9.1 C 7.81 g/m*3 9.1 C 0 km/h
73 03-11-2008 06:21:25 9.2 C 7.86 g/m*3 9.2 C 0 km/h
74 03-11-2008 06:46:25 9.2 C 7.77 g/m*3 9.2 C 0 km/h
75 03-11-2008 07:11:26 9.2 C 7.77 g/m*3 9.2 C 0 km/h
Sensor: Nr:Datum:Temp:Abs-Feuchte:Windchill:Wind:
Aussen-T/F 76 03-11-2008 07:36:26 9.2 C 7.77 g/m*3 9.2 C 0 km/h
77 03-11-2008 08:01:26 9.4 C 7.87 g/m*3 9.4 C 0 km/h
78 03-11-2008 08:26:26 9.5 C 7.92 g/m*3 9.5 C 0 km/h
79 03-11-2008 08:51:26 9.8 C 8.07 g/m*3 9.8 C 0 km/h
80 03-11-2008 09:16:26 10.1 C 7.94 g/m*3 10.1 C 0 km/h
81 03-11-2008 09:41:26 10.2 C 7.9 g/m*3 10.2 C 0 km/h
82 03-11-2008 10:06:26 10.4 C 7.81 g/m*3 10.4 C 0 km/h
83 03-11-2008 10:31:26 10.5 C 7.76 g/m*3 10.5 C 0 km/h
84 03-11-2008 10:56:26 11.1 C 7.96 g/m*3 11.1 C 0 km/h
85 03-11-2008 11:21:26 11.4 C 7.8 g/m*3 11.4 C 0 km/h
86 03-11-2008 11:46:26 11.7 C 7.84 g/m*3 11.7 C 0 km/h
87 03-11-2008 12:11:26 12.7 C 8.24 g/m*3 12.7 C 0 km/h
88 03-11-2008 12:36:26 13.1 C 7.99 g/m*3 13.1 C 0 km/h
89 03-11-2008 13:01:26 13.4 C 7.9 g/m*3 13.4 C 0 km/h
90 03-11-2008 13:26:26 13.4 C 7.9 g/m*3 13.4 C 0 km/h
91 03-11-2008 13:51:26 13.5 C 7.72 g/m*3 13.5 C 0 km/h
92 03-11-2008 14:16:26 13.6 C 7.77 g/m*3 13.6 C 0 km/h
93 03-11-2008 14:41:26 14.4 C 7.79 g/m*3 14.4 C 0 km/h
94 03-11-2008 15:06:27 14 C 7.84 g/m*3 14 C 0 km/h
95 03-11-2008 15:31:27 13.3 C 8.09 g/m*3 13.3 C 0 km/h
96 03-11-2008 15:56:27 13.2 C 8.27 g/m*3 13.2 C 0 km/h
97 03-11-2008 16:21:27 12.7 C 8.24 g/m*3 12.7 C 0 km/h
98 03-11-2008 16:46:27 12.3 C 8.25 g/m*3 12.3 C 0 km/h
99 03-11-2008 17:11:27 11.5 C 8.06 g/m*3 11.5 C 0 km/h
100 03-11-2008 17:36:27 10.8 C 8.01 g/m*3 10.8 C 0 km/h
Sensor: Nr:Datum:Temp:Abs-Feuchte:Windchill:Wind:
Aussen-T/F 101 03-11-2008 18:01:27 10.1 C 7.85 g/m*3 10.1 C 0 km/h
102 03-11-2008 18:26:27 9.7 C 7.93 g/m*3 9.7 C 0 km/h
103 03-11-2008 18:51:27 9.3 C 7.82 g/m*3 9.3 C 0 km/h
104 03-11-2008 19:16:27 9 C 7.76 g/m*3 9 C 0 km/h
105 03-11-2008 19:41:27 8.5 C 7.6 g/m*3 8.5 C 0 km/h
106 03-11-2008 20:06:27 8.4 C 7.63 g/m*3 8.4 C 0 km/h
107 03-11-2008 20:31:27 8.1 C 7.49 g/m*3 8.1 C 0 km/h
108 03-11-2008 20:56:27 7.9 C 7.56 g/m*3 7.9 C 0 km/h
109 03-11-2008 21:21:27 7.5 C 7.36 g/m*3 7.5 C 0 km/h
110 03-11-2008 21:46:27 7.1 C 7.18 g/m*3 7.1 C 0 km/h
111 03-11-2008 22:11:27 6.8 C 7.11 g/m*3 6.8 C 0 km/h
112 03-11-2008 22:36:27 6.6 C 7.02 g/m*3 6.6 C 0 km/h
113 03-11-2008 23:01:27 6.4 C 6.93 g/m*3 6.4 C 0 km/h
114 03-11-2008 23:26:28 6.7 C 7.14 g/m*3 6.7 C 0 km/h
115 03-11-2008 23:51:28 7.1 C 7.33 g/m*3 7.1 C 0 km/h

Legende:
   Min
   Max


Maximal/Minimal-Werte vom 17.04.2019 - 19.05.2019

Sensor Min Max Avg
Temp
(Aussen-T/F)
2.2 °C
13-05-2019  06:50:00
26.6 °C
24-04-2019  17:05:00
11.51 °C

Die Daten stammen von einer Davis Vantage Pro 2 Wetter-Station und werden unter Linux mit der Software wview2wettercgi und aufbereitet. Alle Angaben erfolgen ohne Gewähr für ihre Vollständigkeit oder Richtigkeit.
Kontakt: Rainer Krienke krienke@uni-koblenz.de . Meine Webseiten an der Uni Koblenz oder privat.
Version: $Revision: 0.78 $